sensor_id;sensor_type;location;lat;lon;timestamp;temperature;humidity
45643;DHT22;31358;46.008;11.144;2022-08-01T00:00:25;21.80;90.80
45643;DHT22;31358;46.008;11.144;2022-08-01T00:02:51;21.70;91.00
45643;DHT22;31358;46.008;11.144;2022-08-01T00:05:17;21.60;91.20
45643;DHT22;31358;46.008;11.144;2022-08-01T00:07:43;21.20;91.90
45643;DHT22;31358;46.008;11.144;2022-08-01T00:10:11;21.30;91.80
45643;DHT22;31358;46.008;11.144;2022-08-01T00:12:37;21.40;91.50
45643;DHT22;31358;46.008;11.144;2022-08-01T00:15:04;21.30;91.80
45643;DHT22;31358;46.008;11.144;2022-08-01T00:17:31;21.30;92.00
45643;DHT22;31358;46.008;11.144;2022-08-01T00:19:56;21.20;92.50
45643;DHT22;31358;46.008;11.144;2022-08-01T00:22:22;21.20;91.90
45643;DHT22;31358;46.008;11.144;2022-08-01T00:24:48;21.30;92.20
45643;DHT22;31358;46.008;11.144;2022-08-01T00:27:14;21.30;91.70
45643;DHT22;31358;46.008;11.144;2022-08-01T00:29:39;21.30;91.80
45643;DHT22;31358;46.008;11.144;2022-08-01T00:32:05;21.50;91.50
45643;DHT22;31358;46.008;11.144;2022-08-01T00:34:31;21.40;91.90
45643;DHT22;31358;46.008;11.144;2022-08-01T00:36:56;21.10;92.20
45643;DHT22;31358;46.008;11.144;2022-08-01T00:39:22;20.90;92.50
45643;DHT22;31358;46.008;11.144;2022-08-01T00:41:48;21.00;92.30
45643;DHT22;31358;46.008;11.144;2022-08-01T00:44:13;20.80;92.70
45643;DHT22;31358;46.008;11.144;2022-08-01T00:46:39;20.90;92.50
45643;DHT22;31358;46.008;11.144;2022-08-01T00:49:06;20.70;92.90
45643;DHT22;31358;46.008;11.144;2022-08-01T00:51:31;20.70;93.40
45643;DHT22;31358;46.008;11.144;2022-08-01T00:53:59;20.70;93.30
45643;DHT22;31358;46.008;11.144;2022-08-01T00:56:26;20.80;92.90
45643;DHT22;31358;46.008;11.144;2022-08-01T00:58:54;20.90;92.60
45643;DHT22;31358;46.008;11.144;2022-08-01T01:01:20;20.90;92.60
45643;DHT22;31358;46.008;11.144;2022-08-01T01:03:51;20.90;92.70
45643;DHT22;31358;46.008;11.144;2022-08-01T01:11:44;20.90;92.70
45643;DHT22;31358;46.008;11.144;2022-08-01T01:14:21;20.80;92.80
45643;DHT22;31358;46.008;11.144;2022-08-01T01:16:49;20.60;93.40
45643;DHT22;31358;46.008;11.144;2022-08-01T01:19:21;20.60;92.90
45643;DHT22;31358;46.008;11.144;2022-08-01T01:22:36;20.80;92.50
45643;DHT22;31358;46.008;11.144;2022-08-01T01:30:47;20.80;92.70
45643;DHT22;31358;46.008;11.144;2022-08-01T01:33:14;20.80;92.50
45643;DHT22;31358;46.008;11.144;2022-08-01T01:35:51;20.90;92.30
45643;DHT22;31358;46.008;11.144;2022-08-01T01:38:22;20.90;92.40
45643;DHT22;31358;46.008;11.144;2022-08-01T01:40:50;20.80;92.60
45643;DHT22;31358;46.008;11.144;2022-08-01T01:43:18;20.80;92.50
45643;DHT22;31358;46.008;11.144;2022-08-01T01:45:45;20.90;92.50
45643;DHT22;31358;46.008;11.144;2022-08-01T01:48:18;20.90;92.20
45643;DHT22;31358;46.008;11.144;2022-08-01T01:50:46;21.10;91.90
45643;DHT22;31358;46.008;11.144;2022-08-01T01:53:14;21.00;92.50
45643;DHT22;31358;46.008;11.144;2022-08-01T01:55:43;20.80;92.60
45643;DHT22;31358;46.008;11.144;2022-08-01T01:58:12;20.80;92.30
45643;DHT22;31358;46.008;11.144;2022-08-01T02:00:39;20.70;92.50
45643;DHT22;31358;46.008;11.144;2022-08-01T02:03:07;20.70;92.50
45643;DHT22;31358;46.008;11.144;2022-08-01T02:05:34;20.30;93.60
45643;DHT22;31358;46.008;11.144;2022-08-01T02:08:02;20.30;93.10
45643;DHT22;31358;46.008;11.144;2022-08-01T02:10:30;20.40;93.30
45643;DHT22;31358;46.008;11.144;2022-08-01T02:12:59;20.00;94.10
45643;DHT22;31358;46.008;11.144;2022-08-01T02:15:30;19.90;94.20
45643;DHT22;31358;46.008;11.144;2022-08-01T02:17:57;19.90;94.20
45643;DHT22;31358;46.008;11.144;2022-08-01T02:20:27;19.70;94.80
45643;DHT22;31358;46.008;11.144;2022-08-01T02:23:00;19.90;94.20
45643;DHT22;31358;46.008;11.144;2022-08-01T02:25:31;20.10;93.80
45643;DHT22;31358;46.008;11.144;2022-08-01T02:28:04;19.70;94.70
45643;DHT22;31358;46.008;11.144;2022-08-01T02:30:34;19.80;94.30
45643;DHT22;31358;46.008;11.144;2022-08-01T02:33:06;19.60;95.30
45643;DHT22;31358;46.008;11.144;2022-08-01T02:35:37;19.70;94.70
45643;DHT22;31358;46.008;11.144;2022-08-01T02:38:05;19.70;95.10
45643;DHT22;31358;46.008;11.144;2022-08-01T02:40:33;19.90;94.30
45643;DHT22;31358;46.008;11.144;2022-08-01T02:43:03;19.80;94.70
45643;DHT22;31358;46.008;11.144;2022-08-01T02:45:31;19.50;95.20
45643;DHT22;31358;46.008;11.144;2022-08-01T02:48:05;19.50;96.00
45643;DHT22;31358;46.008;11.144;2022-08-01T02:50:32;19.90;94.20
45643;DHT22;31358;46.008;11.144;2022-08-01T02:52:59;19.60;95.20
45643;DHT22;31358;46.008;11.144;2022-08-01T02:55:26;19.60;95.20
45643;DHT22;31358;46.008;11.144;2022-08-01T02:57:53;19.60;95.10
45643;DHT22;31358;46.008;11.144;2022-08-01T03:00:20;19.50;95.20
45643;DHT22;31358;46.008;11.144;2022-08-01T03:02:47;19.50;95.10
45643;DHT22;31358;46.008;11.144;2022-08-01T03:05:14;19.60;95.20
45643;DHT22;31358;46.008;11.144;2022-08-01T03:07:41;19.40;95.30
45643;DHT22;31358;46.008;11.144;2022-08-01T03:10:08;19.50;95.20
45643;DHT22;31358;46.008;11.144;2022-08-01T03:12:36;19.30;96.00
45643;DHT22;31358;46.008;11.144;2022-08-01T03:15:04;19.60;95.20
45643;DHT22;31358;46.008;11.144;2022-08-01T03:17:32;19.40;95.30
45643;DHT22;31358;46.008;11.144;2022-08-01T03:19:59;19.30;95.70
45643;DHT22;31358;46.008;11.144;2022-08-01T03:22:29;19.30;95.50
45643;DHT22;31358;46.008;11.144;2022-08-01T03:24:56;19.30;95.80
45643;DHT22;31358;46.008;11.144;2022-08-01T03:27:23;19.30;95.40
45643;DHT22;31358;46.008;11.144;2022-08-01T03:29:51;19.70;94.80
45643;DHT22;31358;46.008;11.144;2022-08-01T03:32:18;19.80;94.70
45643;DHT22;31358;46.008;11.144;2022-08-01T03:34:45;19.50;95.40
45643;DHT22;31358;46.008;11.144;2022-08-01T03:37:29;19.40;95.40
45643;DHT22;31358;46.008;11.144;2022-08-01T03:40:28;19.50;94.90
45643;DHT22;31358;46.008;11.144;2022-08-01T03:43:04;19.70;94.70
45643;DHT22;31358;46.008;11.144;2022-08-01T03:45:38;19.70;94.50
45643;DHT22;31358;46.008;11.144;2022-08-01T03:48:10;19.70;94.60
45643;DHT22;31358;46.008;11.144;2022-08-01T03:50:42;19.90;94.00
45643;DHT22;31358;46.008;11.144;2022-08-01T03:53:08;19.90;94.40
45643;DHT22;31358;46.008;11.144;2022-08-01T03:55:36;19.70;94.50
45643;DHT22;31358;46.008;11.144;2022-08-01T03:58:05;19.70;94.90
45643;DHT22;31358;46.008;11.144;2022-08-01T04:00:31;19.70;94.70
45643;DHT22;31358;46.008;11.144;2022-08-01T04:02:57;19.70;94.60
45643;DHT22;31358;46.008;11.144;2022-08-01T04:05:24;19.40;95.30
45643;DHT22;31358;46.008;11.144;2022-08-01T04:07:51;19.20;96.00
45643;DHT22;31358;46.008;11.144;2022-08-01T04:10:25;19.00;96.20
45643;DHT22;31358;46.008;11.144;2022-08-01T04:12:51;19.20;95.70
45643;DHT22;31358;46.008;11.144;2022-08-01T04:15:17;19.00;96.10
45643;DHT22;31358;46.008;11.144;2022-08-01T04:17:43;19.30;95.50
45643;DHT22;31358;46.008;11.144;2022-08-01T04:20:10;19.30;95.40
45643;DHT22;31358;46.008;11.144;2022-08-01T04:22:36;19.60;95.10
45643;DHT22;31358;46.008;11.144;2022-08-01T04:25:07;19.70;94.90
45643;DHT22;31358;46.008;11.144;2022-08-01T04:27:37;19.80;94.70
45643;DHT22;31358;46.008;11.144;2022-08-01T04:30:05;19.90;94.60
45643;DHT22;31358;46.008;11.144;2022-08-01T04:32:35;20.10;94.20
45643;DHT22;31358;46.008;11.144;2022-08-01T04:35:05;20.10;94.10
45643;DHT22;31358;46.008;11.144;2022-08-01T04:37:32;20.20;94.00
45643;DHT22;31358;46.008;11.144;2022-08-01T04:40:03;20.10;94.30
45643;DHT22;31358;46.008;11.144;2022-08-01T04:42:31;20.00;94.60
45643;DHT22;31358;46.008;11.144;2022-08-01T04:44:57;19.80;94.60
45643;DHT22;31358;46.008;11.144;2022-08-01T04:47:23;19.90;94.60
45643;DHT22;31358;46.008;11.144;2022-08-01T04:49:50;19.90;94.40
45643;DHT22;31358;46.008;11.144;2022-08-01T04:52:16;20.00;94.50
45643;DHT22;31358;46.008;11.144;2022-08-01T04:54:43;20.00;94.40
45643;DHT22;31358;46.008;11.144;2022-08-01T04:57:09;20.10;94.30
45643;DHT22;31358;46.008;11.144;2022-08-01T04:59:37;20.00;94.50
45643;DHT22;31358;46.008;11.144;2022-08-01T05:02:15;20.00;94.40
45643;DHT22;31358;46.008;11.144;2022-08-01T05:04:42;20.00;94.60
45643;DHT22;31358;46.008;11.144;2022-08-01T05:07:09;20.00;94.40
45643;DHT22;31358;46.008;11.144;2022-08-01T05:09:35;19.90;94.50
45643;DHT22;31358;46.008;11.144;2022-08-01T05:12:03;20.00;94.40
45643;DHT22;31358;46.008;11.144;2022-08-01T05:14:29;20.00;94.60
45643;DHT22;31358;46.008;11.144;2022-08-01T05:16:59;19.80;95.00
45643;DHT22;31358;46.008;11.144;2022-08-01T05:19:25;19.90;94.90
45643;DHT22;31358;46.008;11.144;2022-08-01T05:21:52;19.70;95.10
45643;DHT22;31358;46.008;11.144;2022-08-01T05:24:17;19.70;95.50
45643;DHT22;31358;46.008;11.144;2022-08-01T05:26:43;19.50;95.40
45643;DHT22;31358;46.008;11.144;2022-08-01T05:29:09;19.40;96.00
45643;DHT22;31358;46.008;11.144;2022-08-01T05:31:34;19.30;96.30
45643;DHT22;31358;46.008;11.144;2022-08-01T05:34:03;19.40;96.10
45643;DHT22;31358;46.008;11.144;2022-08-01T05:36:29;19.30;96.10
45643;DHT22;31358;46.008;11.144;2022-08-01T05:38:55;19.40;96.20
45643;DHT22;31358;46.008;11.144;2022-08-01T05:41:20;19.50;96.20
45643;DHT22;31358;46.008;11.144;2022-08-01T05:43:46;19.50;95.80
45643;DHT22;31358;46.008;11.144;2022-08-01T05:46:12;19.50;96.50
45643;DHT22;31358;46.008;11.144;2022-08-01T05:48:38;19.50;96.30
45643;DHT22;31358;46.008;11.144;2022-08-01T05:51:04;19.60;95.90
45643;DHT22;31358;46.008;11.144;2022-08-01T05:53:29;20.00;95.10
45643;DHT22;31358;46.008;11.144;2022-08-01T05:55:55;19.90;95.90
45643;DHT22;31358;46.008;11.144;2022-08-01T05:58:22;19.90;95.40
45643;DHT22;31358;46.008;11.144;2022-08-01T06:00:47;20.10;94.50
45643;DHT22;31358;46.008;11.144;2022-08-01T06:03:13;20.40;94.00
45643;DHT22;31358;46.008;11.144;2022-08-01T06:05:39;20.30;94.70
45643;DHT22;31358;46.008;11.144;2022-08-01T06:08:05;20.20;95.80
45643;DHT22;31358;46.008;11.144;2022-08-01T06:10:31;20.00;96.20
45643;DHT22;31358;46.008;11.144;2022-08-01T06:12:57;20.00;96.30
45643;DHT22;31358;46.008;11.144;2022-08-01T06:15:22;20.20;94.40
45643;DHT22;31358;46.008;11.144;2022-08-01T06:17:48;20.40;94.30
45643;DHT22;31358;46.008;11.144;2022-08-01T06:20:13;20.60;93.70
45643;DHT22;31358;46.008;11.144;2022-08-01T06:22:39;20.80;93.60
45643;DHT22;31358;46.008;11.144;2022-08-01T06:25:05;20.80;93.40
45643;DHT22;31358;46.008;11.144;2022-08-01T06:27:34;20.90;95.10
45643;DHT22;31358;46.008;11.144;2022-08-01T06:30:00;20.80;96.00
45643;DHT22;31358;46.008;11.144;2022-08-01T06:32:26;20.80;96.00
45643;DHT22;31358;46.008;11.144;2022-08-01T06:34:52;20.90;93.70
45643;DHT22;31358;46.008;11.144;2022-08-01T06:37:18;21.20;94.20
45643;DHT22;31358;46.008;11.144;2022-08-01T06:39:44;21.30;94.70
45643;DHT22;31358;46.008;11.144;2022-08-01T06:42:09;21.40;93.20
45643;DHT22;31358;46.008;11.144;2022-08-01T06:44:35;21.60;92.00
45643;DHT22;31358;46.008;11.144;2022-08-01T06:47:01;21.70;92.70
45643;DHT22;31358;46.008;11.144;2022-08-01T06:49:27;21.80;92.20
45643;DHT22;31358;46.008;11.144;2022-08-01T06:51:53;22.00;91.70
45643;DHT22;31358;46.008;11.144;2022-08-01T06:54:19;22.10;91.50
45643;DHT22;31358;46.008;11.144;2022-08-01T06:56:45;22.30;92.00
45643;DHT22;31358;46.008;11.144;2022-08-01T06:59:10;22.30;92.60
45643;DHT22;31358;46.008;11.144;2022-08-01T07:01:36;22.40;92.10
45643;DHT22;31358;46.008;11.144;2022-08-01T07:04:02;22.70;92.30
45643;DHT22;31358;46.008;11.144;2022-08-01T07:06:28;22.80;92.00
45643;DHT22;31358;46.008;11.144;2022-08-01T07:08:54;23.10;91.20
45643;DHT22;31358;46.008;11.144;2022-08-01T07:11:21;23.30;91.30
45643;DHT22;31358;46.008;11.144;2022-08-01T07:13:46;23.30;90.70
45643;DHT22;31358;46.008;11.144;2022-08-01T07:16:13;23.60;90.90
45643;DHT22;31358;46.008;11.144;2022-08-01T07:18:39;23.80;90.20
45643;DHT22;31358;46.008;11.144;2022-08-01T07:21:04;24.00;90.60
45643;DHT22;31358;46.008;11.144;2022-08-01T07:23:30;24.20;90.30
45643;DHT22;31358;46.008;11.144;2022-08-01T07:25:56;25.00;89.30
45643;DHT22;31358;46.008;11.144;2022-08-01T07:28:21;26.20;88.60
45643;DHT22;31358;46.008;11.144;2022-08-01T07:30:47;27.10;85.50
45643;DHT22;31358;46.008;11.144;2022-08-01T07:33:12;28.20;84.30
45643;DHT22;31358;46.008;11.144;2022-08-01T07:35:38;29.50;82.60
45643;DHT22;31358;46.008;11.144;2022-08-01T07:38:07;30.40;80.80
45643;DHT22;31358;46.008;11.144;2022-08-01T07:40:33;30.30;78.60
45643;DHT22;31358;46.008;11.144;2022-08-01T07:42:58;29.90;79.70
45643;DHT22;31358;46.008;11.144;2022-08-01T07:45:24;30.70;78.80
45643;DHT22;31358;46.008;11.144;2022-08-01T07:47:50;31.40;78.00
45643;DHT22;31358;46.008;11.144;2022-08-01T07:50:16;31.30;77.80
45643;DHT22;31358;46.008;11.144;2022-08-01T07:52:42;31.70;77.40
45643;DHT22;31358;46.008;11.144;2022-08-01T07:55:09;31.50;76.40
45643;DHT22;31358;46.008;11.144;2022-08-01T07:57:35;31.40;76.10
45643;DHT22;31358;46.008;11.144;2022-08-01T08:00:01;31.00;76.50
45643;DHT22;31358;46.008;11.144;2022-08-01T08:02:28;30.00;78.10
45643;DHT22;31358;46.008;11.144;2022-08-01T08:04:54;27.90;82.50
45643;DHT22;31358;46.008;11.144;2022-08-01T08:07:20;26.40;84.90
45643;DHT22;31358;46.008;11.144;2022-08-01T08:09:45;25.70;85.30
45643;DHT22;31358;46.008;11.144;2022-08-01T08:12:11;25.30;87.60
45643;DHT22;31358;46.008;11.144;2022-08-01T08:14:37;25.30;87.60
45643;DHT22;31358;46.008;11.144;2022-08-01T08:17:04;25.80;86.40
45643;DHT22;31358;46.008;11.144;2022-08-01T08:19:50;27.80;81.70
45643;DHT22;31358;46.008;11.144;2022-08-01T08:22:16;28.20;80.80
45643;DHT22;31358;46.008;11.144;2022-08-01T08:24:41;28.70;81.00
45643;DHT22;31358;46.008;11.144;2022-08-01T08:27:07;29.10;80.30
45643;DHT22;31358;46.008;11.144;2022-08-01T08:29:33;29.30;80.00
45643;DHT22;31358;46.008;11.144;2022-08-01T08:31:59;28.80;80.20
45643;DHT22;31358;46.008;11.144;2022-08-01T08:34:27;28.60;81.40
45643;DHT22;31358;46.008;11.144;2022-08-01T08:36:54;28.20;81.10
45643;DHT22;31358;46.008;11.144;2022-08-01T08:39:20;27.60;82.50
45643;DHT22;31358;46.008;11.144;2022-08-01T08:41:47;27.60;83.40
45643;DHT22;31358;46.008;11.144;2022-08-01T08:44:13;27.20;84.40
45643;DHT22;31358;46.008;11.144;2022-08-01T08:46:44;27.10;83.60
45643;DHT22;31358;46.008;11.144;2022-08-01T08:49:15;26.90;84.60
45643;DHT22;31358;46.008;11.144;2022-08-01T08:51:42;27.20;85.90
45643;DHT22;31358;46.008;11.144;2022-08-01T08:54:11;26.90;83.10
45643;DHT22;31358;46.008;11.144;2022-08-01T08:56:38;26.70;84.50
45643;DHT22;31358;46.008;11.144;2022-08-01T08:59:04;26.90;85.60
45643;DHT22;31358;46.008;11.144;2022-08-01T09:01:32;27.10;84.00
45643;DHT22;31358;46.008;11.144;2022-08-01T09:04:04;26.90;84.50
45643;DHT22;31358;46.008;11.144;2022-08-01T09:06:31;27.10;84.20
45643;DHT22;31358;46.008;11.144;2022-08-01T09:08:57;27.10;81.40
45643;DHT22;31358;46.008;11.144;2022-08-01T09:11:23;27.00;82.60
45643;DHT22;31358;46.008;11.144;2022-08-01T09:14:05;27.00;83.20
45643;DHT22;31358;46.008;11.144;2022-08-01T09:16:32;27.40;83.50
45643;DHT22;31358;46.008;11.144;2022-08-01T09:19:18;27.50;84.10
45643;DHT22;31358;46.008;11.144;2022-08-01T09:21:59;27.20;83.20
45643;DHT22;31358;46.008;11.144;2022-08-01T09:24:26;27.50;82.30
45643;DHT22;31358;46.008;11.144;2022-08-01T09:26:52;27.10;82.30
45643;DHT22;31358;46.008;11.144;2022-08-01T09:29:24;27.00;82.60
45643;DHT22;31358;46.008;11.144;2022-08-01T09:31:51;27.50;82.60
45643;DHT22;31358;46.008;11.144;2022-08-01T09:34:28;27.80;83.70
45643;DHT22;31358;46.008;11.144;2022-08-01T09:37:01;27.90;84.00
45643;DHT22;31358;46.008;11.144;2022-08-01T09:39:31;28.00;83.60
45643;DHT22;31358;46.008;11.144;2022-08-01T09:41:59;27.90;81.80
45643;DHT22;31358;46.008;11.144;2022-08-01T09:44:41;27.90;83.30
45643;DHT22;31358;46.008;11.144;2022-08-01T09:47:07;27.90;83.40
45643;DHT22;31358;46.008;11.144;2022-08-01T09:49:35;28.10;82.60
45643;DHT22;31358;46.008;11.144;2022-08-01T09:54:36;28.60;83.30
45643;DHT22;31358;46.008;11.144;2022-08-01T09:57:16;28.60;83.50
45643;DHT22;31358;46.008;11.144;2022-08-01T09:59:44;28.80;82.40
45643;DHT22;31358;46.008;11.144;2022-08-01T10:02:11;28.70;83.10
45643;DHT22;31358;46.008;11.144;2022-08-01T10:04:50;28.80;80.30
45643;DHT22;31358;46.008;11.144;2022-08-01T10:07:17;28.90;80.20
45643;DHT22;31358;46.008;11.144;2022-08-01T10:09:44;29.10;82.30
45643;DHT22;31358;46.008;11.144;2022-08-01T10:12:12;29.30;82.10
45643;DHT22;31358;46.008;11.144;2022-08-01T10:14:38;29.40;81.80
45643;DHT22;31358;46.008;11.144;2022-08-01T10:17:18;29.40;80.90
45643;DHT22;31358;46.008;11.144;2022-08-01T10:19:46;29.00;80.00
45643;DHT22;31358;46.008;11.144;2022-08-01T10:22:13;29.20;81.40
45643;DHT22;31358;46.008;11.144;2022-08-01T10:24:46;29.40;80.70
45643;DHT22;31358;46.008;11.144;2022-08-01T10:27:15;29.50;77.60
45643;DHT22;31358;46.008;11.144;2022-08-01T10:29:56;29.60;78.10
45643;DHT22;31358;46.008;11.144;2022-08-01T10:32:23;29.60;79.50
45643;DHT22;31358;46.008;11.144;2022-08-01T10:34:49;29.50;78.50
45643;DHT22;31358;46.008;11.144;2022-08-01T10:37:16;29.30;77.60
45643;DHT22;31358;46.008;11.144;2022-08-01T10:39:43;29.40;79.00
45643;DHT22;31358;46.008;11.144;2022-08-01T10:42:10;29.90;78.70
45643;DHT22;31358;46.008;11.144;2022-08-01T10:44:37;29.90;77.50
45643;DHT22;31358;46.008;11.144;2022-08-01T10:47:10;30.00;79.10
45643;DHT22;31358;46.008;11.144;2022-08-01T10:50:00;30.20;79.40
45643;DHT22;31358;46.008;11.144;2022-08-01T10:52:27;30.50;79.50
45643;DHT22;31358;46.008;11.144;2022-08-01T10:55:13;30.50;77.30
45643;DHT22;31358;46.008;11.144;2022-08-01T10:57:46;30.30;79.00
45643;DHT22;31358;46.008;11.144;2022-08-01T11:00:22;30.50;77.90
45643;DHT22;31358;46.008;11.144;2022-08-01T11:02:59;30.60;79.20
45643;DHT22;31358;46.008;11.144;2022-08-01T11:05:33;30.70;77.90
45643;DHT22;31358;46.008;11.144;2022-08-01T11:08:09;31.00;79.50
45643;DHT22;31358;46.008;11.144;2022-08-01T11:10:38;30.70;77.40
45643;DHT22;31358;46.008;11.144;2022-08-01T11:13:04;30.70;76.60
45643;DHT22;31358;46.008;11.144;2022-08-01T11:15:37;30.80;81.00
45643;DHT22;31358;46.008;11.144;2022-08-01T11:20:56;31.00;76.80
45643;DHT22;31358;46.008;11.144;2022-08-01T11:23:23;31.30;76.00
45643;DHT22;31358;46.008;11.144;2022-08-01T11:33:09;31.60;72.70
45643;DHT22;31358;46.008;11.144;2022-08-01T11:35:35;31.80;72.60
45643;DHT22;31358;46.008;11.144;2022-08-01T11:38:26;31.90;73.20
45643;DHT22;31358;46.008;11.144;2022-08-01T11:41:22;32.10;74.00
45643;DHT22;31358;46.008;11.144;2022-08-01T11:43:59;31.60;74.30
45643;DHT22;31358;46.008;11.144;2022-08-01T11:46:51;31.70;75.80
45643;DHT22;31358;46.008;11.144;2022-08-01T11:49:32;32.00;78.30
45643;DHT22;31358;46.008;11.144;2022-08-01T11:54:47;31.80;74.90
45643;DHT22;31358;46.008;11.144;2022-08-01T11:57:18;32.10;78.10
45643;DHT22;31358;46.008;11.144;2022-08-01T11:59:51;32.30;75.40
45643;DHT22;31358;46.008;11.144;2022-08-01T12:02:18;32.30;78.60
45643;DHT22;31358;46.008;11.144;2022-08-01T12:04:48;32.30;75.60
45643;DHT22;31358;46.008;11.144;2022-08-01T12:07:15;31.80;74.10
45643;DHT22;31358;46.008;11.144;2022-08-01T12:09:41;31.90;75.30
45643;DHT22;31358;46.008;11.144;2022-08-01T12:12:07;32.10;73.90
45643;DHT22;31358;46.008;11.144;2022-08-01T12:14:32;32.10;75.60
45643;DHT22;31358;46.008;11.144;2022-08-01T12:16:58;32.50;78.80
45643;DHT22;31358;46.008;11.144;2022-08-01T12:19:24;32.80;79.00
45643;DHT22;31358;46.008;11.144;2022-08-01T12:22:11;32.70;78.10
45643;DHT22;31358;46.008;11.144;2022-08-01T12:24:39;32.90;77.40
45643;DHT22;31358;46.008;11.144;2022-08-01T12:27:06;33.00;76.90
45643;DHT22;31358;46.008;11.144;2022-08-01T12:29:37;32.90;75.10
45643;DHT22;31358;46.008;11.144;2022-08-01T12:32:04;32.90;77.20
45643;DHT22;31358;46.008;11.144;2022-08-01T12:34:30;33.00;76.10
45643;DHT22;31358;46.008;11.144;2022-08-01T12:36:58;32.60;76.30
45643;DHT22;31358;46.008;11.144;2022-08-01T12:39:32;32.60;74.90
45643;DHT22;31358;46.008;11.144;2022-08-01T12:41:58;32.70;76.80
45643;DHT22;31358;46.008;11.144;2022-08-01T12:44:25;33.00;76.60
45643;DHT22;31358;46.008;11.144;2022-08-01T12:46:52;33.40;77.10
45643;DHT22;31358;46.008;11.144;2022-08-01T12:49:18;33.40;72.90
45643;DHT22;31358;46.008;11.144;2022-08-01T12:51:44;33.40;75.60
45643;DHT22;31358;46.008;11.144;2022-08-01T12:54:09;33.30;74.90
45643;DHT22;31358;46.008;11.144;2022-08-01T12:56:36;33.30;71.70
45643;DHT22;31358;46.008;11.144;2022-08-01T12:59:01;33.60;74.10
45643;DHT22;31358;46.008;11.144;2022-08-01T13:01:28;33.80;73.40
45643;DHT22;31358;46.008;11.144;2022-08-01T13:04:01;33.60;73.10
45643;DHT22;31358;46.008;11.144;2022-08-01T13:06:30;33.20;70.00
45643;DHT22;31358;46.008;11.144;2022-08-01T13:09:05;33.40;76.00
45643;DHT22;31358;46.008;11.144;2022-08-01T13:11:30;33.70;73.40
45643;DHT22;31358;46.008;11.144;2022-08-01T13:13:56;33.60;69.30
45643;DHT22;31358;46.008;11.144;2022-08-01T13:16:24;33.50;69.70
45643;DHT22;31358;46.008;11.144;2022-08-01T13:18:51;33.90;71.10
45643;DHT22;31358;46.008;11.144;2022-08-01T13:21:19;34.10;70.90
45643;DHT22;31358;46.008;11.144;2022-08-01T13:24:07;33.90;70.20
45643;DHT22;31358;46.008;11.144;2022-08-01T13:29:08;33.90;68.30
45643;DHT22;31358;46.008;11.144;2022-08-01T13:31:35;34.00;69.80
45643;DHT22;31358;46.008;11.144;2022-08-01T13:34:01;34.00;66.60
45643;DHT22;31358;46.008;11.144;2022-08-01T13:36:27;34.00;70.20
45643;DHT22;31358;46.008;11.144;2022-08-01T13:38:54;34.00;67.90
45643;DHT22;31358;46.008;11.144;2022-08-01T13:41:39;34.30;70.90
45643;DHT22;31358;46.008;11.144;2022-08-01T13:44:05;34.30;70.10
45643;DHT22;31358;46.008;11.144;2022-08-01T13:46:31;34.20;68.30
45643;DHT22;31358;46.008;11.144;2022-08-01T13:48:57;34.30;69.20
45643;DHT22;31358;46.008;11.144;2022-08-01T13:51:22;34.40;69.90
45643;DHT22;31358;46.008;11.144;2022-08-01T13:53:48;34.40;70.10
45643;DHT22;31358;46.008;11.144;2022-08-01T13:56:14;34.10;68.80
45643;DHT22;31358;46.008;11.144;2022-08-01T13:58:41;34.10;68.50
45643;DHT22;31358;46.008;11.144;2022-08-01T14:01:07;34.30;69.90
45643;DHT22;31358;46.008;11.144;2022-08-01T14:03:32;34.30;69.60
45643;DHT22;31358;46.008;11.144;2022-08-01T14:05:58;34.40;70.00
45643;DHT22;31358;46.008;11.144;2022-08-01T14:08:34;34.50;69.40
45643;DHT22;31358;46.008;11.144;2022-08-01T14:11:00;34.60;67.20
45643;DHT22;31358;46.008;11.144;2022-08-01T14:13:26;34.50;67.70
45643;DHT22;31358;46.008;11.144;2022-08-01T14:15:52;34.60;68.40
45643;DHT22;31358;46.008;11.144;2022-08-01T14:18:18;34.60;67.90
45643;DHT22;31358;46.008;11.144;2022-08-01T14:20:43;34.40;66.50
45643;DHT22;31358;46.008;11.144;2022-08-01T14:23:09;34.70;69.10
45643;DHT22;31358;46.008;11.144;2022-08-01T14:25:39;34.90;70.50
45643;DHT22;31358;46.008;11.144;2022-08-01T14:28:05;34.60;67.00
45643;DHT22;31358;46.008;11.144;2022-08-01T14:30:32;34.60;70.80
45643;DHT22;31358;46.008;11.144;2022-08-01T14:32:58;34.80;71.40
45643;DHT22;31358;46.008;11.144;2022-08-01T14:35:24;34.80;69.20
45643;DHT22;31358;46.008;11.144;2022-08-01T14:37:49;34.70;69.20
45643;DHT22;31358;46.008;11.144;2022-08-01T14:40:15;34.60;68.90
45643;DHT22;31358;46.008;11.144;2022-08-01T14:42:41;34.60;68.10
45643;DHT22;31358;46.008;11.144;2022-08-01T14:45:09;34.50;68.90
45643;DHT22;31358;46.008;11.144;2022-08-01T14:47:39;34.40;68.00
45643;DHT22;31358;46.008;11.144;2022-08-01T14:50:08;34.40;67.90
45643;DHT22;31358;46.008;11.144;2022-08-01T14:52:35;34.40;69.70
45643;DHT22;31358;46.008;11.144;2022-08-01T14:55:01;34.30;69.50
45643;DHT22;31358;46.008;11.144;2022-08-01T14:57:27;34.30;69.50
45643;DHT22;31358;46.008;11.144;2022-08-01T14:59:52;34.20;69.20
45643;DHT22;31358;46.008;11.144;2022-08-01T15:02:18;34.30;71.90
45643;DHT22;31358;46.008;11.144;2022-08-01T15:04:45;34.30;69.30
45643;DHT22;31358;46.008;11.144;2022-08-01T15:07:11;34.30;69.00
45643;DHT22;31358;46.008;11.144;2022-08-01T15:09:37;34.30;71.50
45643;DHT22;31358;46.008;11.144;2022-08-01T15:12:03;34.40;70.30
45643;DHT22;31358;46.008;11.144;2022-08-01T15:14:28;34.40;70.10
45643;DHT22;31358;46.008;11.144;2022-08-01T15:17:14;34.30;70.90
45643;DHT22;31358;46.008;11.144;2022-08-01T15:19:39;34.30;71.10
45643;DHT22;31358;46.008;11.144;2022-08-01T15:22:05;34.40;70.20
45643;DHT22;31358;46.008;11.144;2022-08-01T15:24:31;34.30;69.80
45643;DHT22;31358;46.008;11.144;2022-08-01T15:26:57;34.10;69.30
45643;DHT22;31358;46.008;11.144;2022-08-01T15:29:23;34.10;69.20
45643;DHT22;31358;46.008;11.144;2022-08-01T15:31:49;33.90;69.70
45643;DHT22;31358;46.008;11.144;2022-08-01T15:34:15;34.00;70.60
45643;DHT22;31358;46.008;11.144;2022-08-01T15:36:41;33.90;70.30
45643;DHT22;31358;46.008;11.144;2022-08-01T15:39:08;33.90;71.70
45643;DHT22;31358;46.008;11.144;2022-08-01T15:41:34;34.10;72.10
45643;DHT22;31358;46.008;11.144;2022-08-01T15:44:00;34.10;71.40
45643;DHT22;31358;46.008;11.144;2022-08-01T15:46:26;34.10;71.80
45643;DHT22;31358;46.008;11.144;2022-08-01T15:48:51;34.10;70.70
45643;DHT22;31358;46.008;11.144;2022-08-01T15:51:17;34.10;70.80